sensor_id;sensor_type;location;lat;lon;timestamp;pressure;altitude;pressure_sealevel;temperature;humidity
42705;BME280;28342;42.594;23.414;2023-02-10T00:01:46;96175.81;;;-5.90;67.73
42705;BME280;28342;42.594;23.414;2023-02-10T00:04:16;96162.59;;;-5.95;67.55
42705;BME280;28342;42.594;23.414;2023-02-10T00:07:04;96173.34;;;-5.84;66.92
42705;BME280;28342;42.594;23.414;2023-02-10T00:09:32;96176.09;;;-5.85;66.54
42705;BME280;28342;42.594;23.414;2023-02-10T00:12:02;96177.41;;;-5.89;66.58
42705;BME280;28342;42.594;23.414;2023-02-10T00:14:37;96195.00;;;-5.85;66.57
42705;BME280;28342;42.594;23.414;2023-02-10T00:17:03;96146.63;;;-6.32;66.47
42705;BME280;28342;42.594;23.414;2023-02-10T00:19:29;96188.44;;;-6.12;66.58
42705;BME280;28342;42.594;23.414;2023-02-10T00:21:56;96148.72;;;-6.43;67.10
42705;BME280;28342;42.594;23.414;2023-02-10T00:24:22;96184.09;;;-6.27;67.25
42705;BME280;28342;42.594;23.414;2023-02-10T00:26:49;96187.63;;;-6.28;67.67
42705;BME280;28342;42.594;23.414;2023-02-10T00:29:16;96165.66;;;-6.65;67.82
42705;BME280;28342;42.594;23.414;2023-02-10T00:31:52;96167.88;;;-6.78;68.83
42705;BME280;28342;42.594;23.414;2023-02-10T00:34:18;96181.13;;;-6.65;69.73
42705;BME280;28342;42.594;23.414;2023-02-10T00:36:45;96164.16;;;-6.92;68.98
42705;BME280;28342;42.594;23.414;2023-02-10T00:39:16;96144.88;;;-7.22;69.42
42705;BME280;28342;42.594;23.414;2023-02-10T00:41:42;96172.63;;;-7.16;70.12
42705;BME280;28342;42.594;23.414;2023-02-10T00:44:08;96135.53;;;-7.23;69.39
42705;BME280;28342;42.594;23.414;2023-02-10T00:46:35;96143.94;;;-7.13;69.66
42705;BME280;28342;42.594;23.414;2023-02-10T00:49:05;96166.06;;;-7.02;70.23
42705;BME280;28342;42.594;23.414;2023-02-10T00:51:31;96136.84;;;-7.19;70.48
42705;BME280;28342;42.594;23.414;2023-02-10T00:54:05;96121.41;;;-7.03;70.01
42705;BME280;28342;42.594;23.414;2023-02-10T00:56:33;96145.44;;;-7.02;70.38
42705;BME280;28342;42.594;23.414;2023-02-10T00:59:02;96129.81;;;-7.01;69.99
42705;BME280;28342;42.594;23.414;2023-02-10T01:01:34;96119.47;;;-6.93;69.06
42705;BME280;28342;42.594;23.414;2023-02-10T01:04:07;96107.56;;;-6.94;68.64
42705;BME280;28342;42.594;23.414;2023-02-10T01:06:38;96150.28;;;-6.91;67.69
42705;BME280;28342;42.594;23.414;2023-02-10T01:09:05;96125.63;;;-6.85;67.95
42705;BME280;28342;42.594;23.414;2023-02-10T01:11:31;96121.75;;;-6.89;67.33
42705;BME280;28342;42.594;23.414;2023-02-10T01:14:03;96152.09;;;-6.67;67.60
42705;BME280;28342;42.594;23.414;2023-02-10T01:16:50;96141.13;;;-6.61;66.83
42705;BME280;28342;42.594;23.414;2023-02-10T01:19:17;96152.25;;;-6.60;67.11
42705;BME280;28342;42.594;23.414;2023-02-10T01:21:44;96119.69;;;-6.70;66.82
42705;BME280;28342;42.594;23.414;2023-02-10T01:24:11;96098.88;;;-6.84;66.63
42705;BME280;28342;42.594;23.414;2023-02-10T01:26:39;96138.53;;;-6.61;66.81
42705;BME280;28342;42.594;23.414;2023-02-10T01:29:13;96140.50;;;-6.63;66.99
42705;BME280;28342;42.594;23.414;2023-02-10T01:31:44;96112.75;;;-6.69;66.70
42705;BME280;28342;42.594;23.414;2023-02-10T01:34:10;96135.97;;;-6.61;66.30
42705;BME280;28342;42.594;23.414;2023-02-10T01:36:37;96132.41;;;-6.60;65.11
42705;BME280;28342;42.594;23.414;2023-02-10T01:39:03;96131.13;;;-6.48;65.59
42705;BME280;28342;42.594;23.414;2023-02-10T01:41:31;96136.78;;;-6.60;65.67
42705;BME280;28342;42.594;23.414;2023-02-10T01:46:27;96125.97;;;-6.72;65.83
42705;BME280;28342;42.594;23.414;2023-02-10T01:48:54;96131.59;;;-6.77;65.96
42705;BME280;28342;42.594;23.414;2023-02-10T01:51:30;96104.03;;;-6.84;65.97
42705;BME280;28342;42.594;23.414;2023-02-10T01:54:13;96120.47;;;-6.77;66.87
42705;BME280;28342;42.594;23.414;2023-02-10T01:56:41;96130.66;;;-6.68;66.55
42705;BME280;28342;42.594;23.414;2023-02-10T01:59:07;96108.84;;;-6.98;65.73
42705;BME280;28342;42.594;23.414;2023-02-10T02:01:33;96115.22;;;-7.26;67.10
42705;BME280;28342;42.594;23.414;2023-02-10T02:04:02;96094.22;;;-7.47;68.59
42705;BME280;28342;42.594;23.414;2023-02-10T02:06:29;96112.31;;;-7.23;68.52
42705;BME280;28342;42.594;23.414;2023-02-10T02:08:59;96092.50;;;-7.23;69.12
42705;BME280;28342;42.594;23.414;2023-02-10T02:14:56;96083.38;;;-7.01;68.10
42705;BME280;28342;42.594;23.414;2023-02-10T02:20:22;96064.97;;;-7.06;67.35
42705;BME280;28342;42.594;23.414;2023-02-10T02:29:26;96079.97;;;-6.93;67.36
42705;BME280;28342;42.594;23.414;2023-02-10T02:31:59;96087.88;;;-6.95;67.79
42705;BME280;28342;42.594;23.414;2023-02-10T02:34:30;96081.59;;;-6.92;68.18
42705;BME280;28342;42.594;23.414;2023-02-10T02:37:14;96066.56;;;-7.21;68.75
42705;BME280;28342;42.594;23.414;2023-02-10T02:39:42;96076.13;;;-6.97;69.11
42705;BME280;28342;42.594;23.414;2023-02-10T02:42:16;96074.34;;;-6.97;69.08
42705;BME280;28342;42.594;23.414;2023-02-10T02:45:09;96067.25;;;-7.19;70.96
42705;BME280;28342;42.594;23.414;2023-02-10T02:53:28;96062.06;;;-7.11;70.85
42705;BME280;28342;42.594;23.414;2023-02-10T02:59:13;96069.47;;;-7.08;70.97
42705;BME280;28342;42.594;23.414;2023-02-10T03:01:45;96033.38;;;-7.32;71.01
42705;BME280;28342;42.594;23.414;2023-02-10T03:04:17;96056.53;;;-7.48;71.18
42705;BME280;28342;42.594;23.414;2023-02-10T03:06:43;96034.94;;;-7.47;71.33
42705;BME280;28342;42.594;23.414;2023-02-10T03:09:12;96039.78;;;-7.44;71.89
42705;BME280;28342;42.594;23.414;2023-02-10T03:11:40;96027.22;;;-7.39;72.06
42705;BME280;28342;42.594;23.414;2023-02-10T03:14:06;96062.41;;;-7.06;71.76
42705;BME280;28342;42.594;23.414;2023-02-10T03:16:33;96039.97;;;-7.30;71.94
42705;BME280;28342;42.594;23.414;2023-02-10T03:19:00;96055.47;;;-7.05;71.19
42705;BME280;28342;42.594;23.414;2023-02-10T03:21:25;96076.88;;;-7.21;71.77
42705;BME280;28342;42.594;23.414;2023-02-10T03:23:51;96059.16;;;-7.32;72.35
42705;BME280;28342;42.594;23.414;2023-02-10T03:26:28;96073.19;;;-7.10;72.10
42705;BME280;28342;42.594;23.414;2023-02-10T03:28:55;96063.19;;;-7.13;71.31
42705;BME280;28342;42.594;23.414;2023-02-10T03:31:21;96076.75;;;-7.11;69.68
42705;BME280;28342;42.594;23.414;2023-02-10T03:33:47;96078.03;;;-7.07;69.01
42705;BME280;28342;42.594;23.414;2023-02-10T03:36:13;96062.41;;;-7.14;69.39
42705;BME280;28342;42.594;23.414;2023-02-10T03:38:40;96050.94;;;-7.11;68.49
42705;BME280;28342;42.594;23.414;2023-02-10T03:41:07;96044.84;;;-7.18;69.30
42705;BME280;28342;42.594;23.414;2023-02-10T03:44:09;96066.91;;;-6.92;68.13
42705;BME280;28342;42.594;23.414;2023-02-10T03:46:36;96022.25;;;-7.25;68.31
42705;BME280;28342;42.594;23.414;2023-02-10T03:49:06;96036.44;;;-7.20;67.31
42705;BME280;28342;42.594;23.414;2023-02-10T03:51:33;96030.16;;;-7.26;67.49
42705;BME280;28342;42.594;23.414;2023-02-10T03:54:02;96049.13;;;-7.35;67.68
42705;BME280;28342;42.594;23.414;2023-02-10T03:56:28;96057.47;;;-7.58;68.40
42705;BME280;28342;42.594;23.414;2023-02-10T03:58:54;96056.22;;;-7.45;67.93
42705;BME280;28342;42.594;23.414;2023-02-10T04:01:20;96043.50;;;-7.39;67.64
42705;BME280;28342;42.594;23.414;2023-02-10T04:03:46;96028.66;;;-7.45;67.39
42705;BME280;28342;42.594;23.414;2023-02-10T04:06:12;96058.50;;;-7.26;67.05
42705;BME280;28342;42.594;23.414;2023-02-10T04:08:38;96052.78;;;-7.62;67.09
42705;BME280;28342;42.594;23.414;2023-02-10T04:11:05;96042.81;;;-7.65;67.40
42705;BME280;28342;42.594;23.414;2023-02-10T04:13:35;96024.28;;;-7.61;67.06
42705;BME280;28342;42.594;23.414;2023-02-10T04:16:14;96039.13;;;-7.38;66.55
42705;BME280;28342;42.594;23.414;2023-02-10T04:18:40;96026.41;;;-7.40;65.94
42705;BME280;28342;42.594;23.414;2023-02-10T04:21:09;96039.78;;;-7.44;65.96
42705;BME280;28342;42.594;23.414;2023-02-10T04:23:36;96053.44;;;-7.52;66.56
42705;BME280;28342;42.594;23.414;2023-02-10T04:26:06;96053.59;;;-7.62;67.62
42705;BME280;28342;42.594;23.414;2023-02-10T04:28:33;96015.53;;;-7.76;68.04
42705;BME280;28342;42.594;23.414;2023-02-10T04:31:00;96054.88;;;-7.58;67.74
42705;BME280;28342;42.594;23.414;2023-02-10T04:33:27;96027.13;;;-7.72;67.94
42705;BME280;28342;42.594;23.414;2023-02-10T04:35:54;96039.06;;;-7.71;69.59
42705;BME280;28342;42.594;23.414;2023-02-10T04:38:20;96052.28;;;-7.66;70.10
42705;BME280;28342;42.594;23.414;2023-02-10T04:40:46;96038.94;;;-7.61;69.82
42705;BME280;28342;42.594;23.414;2023-02-10T04:43:13;96060.72;;;-7.47;69.21
42705;BME280;28342;42.594;23.414;2023-02-10T04:45:39;96062.00;;;-7.43;68.68
42705;BME280;28342;42.594;23.414;2023-02-10T04:48:05;96063.94;;;-7.45;68.68
42705;BME280;28342;42.594;23.414;2023-02-10T04:50:31;96045.78;;;-7.86;69.77
42705;BME280;28342;42.594;23.414;2023-02-10T04:52:56;96070.03;;;-7.55;69.70
42705;BME280;28342;42.594;23.414;2023-02-10T04:55:22;96062.28;;;-7.63;70.53
42705;BME280;28342;42.594;23.414;2023-02-10T04:57:47;96066.50;;;-7.54;69.21
42705;BME280;28342;42.594;23.414;2023-02-10T05:00:13;96060.69;;;-7.64;68.01
42705;BME280;28342;42.594;23.414;2023-02-10T05:02:39;96057.09;;;-7.79;68.68
42705;BME280;28342;42.594;23.414;2023-02-10T05:05:05;96061.44;;;-7.79;68.71
42705;BME280;28342;42.594;23.414;2023-02-10T05:07:31;96065.09;;;-7.82;68.45
42705;BME280;28342;42.594;23.414;2023-02-10T05:09:56;96069.16;;;-7.71;67.54
42705;BME280;28342;42.594;23.414;2023-02-10T05:12:21;96060.63;;;-7.80;67.55
42705;BME280;28342;42.594;23.414;2023-02-10T05:14:48;96074.53;;;-7.65;67.31
42705;BME280;28342;42.594;23.414;2023-02-10T05:17:13;96078.03;;;-7.66;66.90
42705;BME280;28342;42.594;23.414;2023-02-10T05:19:39;96060.84;;;-7.99;67.04
42705;BME280;28342;42.594;23.414;2023-02-10T05:22:04;96073.56;;;-7.98;67.83
42705;BME280;28342;42.594;23.414;2023-02-10T05:24:29;96088.72;;;-7.95;67.77
42705;BME280;28342;42.594;23.414;2023-02-10T05:26:55;96077.63;;;-7.95;67.69
42705;BME280;28342;42.594;23.414;2023-02-10T05:29:21;96098.25;;;-7.87;68.02
42705;BME280;28342;42.594;23.414;2023-02-10T05:31:46;96055.94;;;-8.19;68.05
42705;BME280;28342;42.594;23.414;2023-02-10T05:34:11;96109.59;;;-7.98;68.03
42705;BME280;28342;42.594;23.414;2023-02-10T05:36:37;96094.59;;;-8.10;68.27
42705;BME280;28342;42.594;23.414;2023-02-10T05:39:04;96115.56;;;-7.97;68.00
42705;BME280;28342;42.594;23.414;2023-02-10T05:41:48;96113.78;;;-7.97;67.86
42705;BME280;28342;42.594;23.414;2023-02-10T05:44:15;96104.34;;;-7.96;67.86
42705;BME280;28342;42.594;23.414;2023-02-10T05:46:40;96094.06;;;-8.14;68.60
42705;BME280;28342;42.594;23.414;2023-02-10T05:49:06;96117.56;;;-7.83;68.38
42705;BME280;28342;42.594;23.414;2023-02-10T05:51:31;96115.16;;;-7.85;67.86
42705;BME280;28342;42.594;23.414;2023-02-10T05:53:57;96120.19;;;-7.75;67.67
42705;BME280;28342;42.594;23.414;2023-02-10T05:56:23;96108.75;;;-7.80;67.00
42705;BME280;28342;42.594;23.414;2023-02-10T05:58:51;96124.22;;;-7.80;66.37
42705;BME280;28342;42.594;23.414;2023-02-10T06:01:18;96123.44;;;-7.73;65.83
42705;BME280;28342;42.594;23.414;2023-02-10T06:03:43;96134.66;;;-7.82;66.02
42705;BME280;28342;42.594;23.414;2023-02-10T06:06:10;96141.06;;;-7.86;66.01
42705;BME280;28342;42.594;23.414;2023-02-10T06:08:37;96122.72;;;-7.83;66.21
42705;BME280;28342;42.594;23.414;2023-02-10T06:11:02;96135.66;;;-7.75;66.04
42705;BME280;28342;42.594;23.414;2023-02-10T06:13:28;96130.09;;;-7.96;66.80
42705;BME280;28342;42.594;23.414;2023-02-10T06:15:53;96124.56;;;-8.01;67.01
42705;BME280;28342;42.594;23.414;2023-02-10T06:18:19;96134.69;;;-8.08;67.30
42705;BME280;28342;42.594;23.414;2023-02-10T06:20:48;96160.06;;;-7.87;68.22
42705;BME280;28342;42.594;23.414;2023-02-10T06:23:16;96160.72;;;-7.85;69.53
42705;BME280;28342;42.594;23.414;2023-02-10T06:25:42;96121.41;;;-7.95;69.34
42705;BME280;28342;42.594;23.414;2023-02-10T06:28:09;96113.47;;;-8.02;70.08
42705;BME280;28342;42.594;23.414;2023-02-10T06:30:40;96131.34;;;-8.00;70.68
42705;BME280;28342;42.594;23.414;2023-02-10T06:33:06;96146.78;;;-7.74;70.27
42705;BME280;28342;42.594;23.414;2023-02-10T06:35:31;96136.72;;;-7.52;69.93
42705;BME280;28342;42.594;23.414;2023-02-10T06:37:57;96143.84;;;-7.45;69.06
42705;BME280;28342;42.594;23.414;2023-02-10T06:40:22;96164.41;;;-7.54;70.31
42705;BME280;28342;42.594;23.414;2023-02-10T06:42:48;96162.47;;;-7.60;70.68
42705;BME280;28342;42.594;23.414;2023-02-10T06:45:14;96166.19;;;-7.54;70.93
42705;BME280;28342;42.594;23.414;2023-02-10T06:47:39;96166.59;;;-7.67;70.83
42705;BME280;28342;42.594;23.414;2023-02-10T06:50:06;96158.28;;;-7.61;70.63
42705;BME280;28342;42.594;23.414;2023-02-10T06:52:32;96154.44;;;-7.83;71.33
42705;BME280;28342;42.594;23.414;2023-02-10T06:55:06;96170.50;;;-7.63;71.52
42705;BME280;28342;42.594;23.414;2023-02-10T06:57:32;96151.78;;;-8.25;73.80
42705;BME280;28342;42.594;23.414;2023-02-10T07:00:10;96163.34;;;-8.03;73.56
42705;BME280;28342;42.594;23.414;2023-02-10T07:02:39;96152.44;;;-8.23;74.60
42705;BME280;28342;42.594;23.414;2023-02-10T07:05:07;96175.72;;;-8.06;74.85
42705;BME280;28342;42.594;23.414;2023-02-10T07:07:36;96173.53;;;-8.19;75.41
42705;BME280;28342;42.594;23.414;2023-02-10T07:10:07;96174.56;;;-8.30;75.57
42705;BME280;28342;42.594;23.414;2023-02-10T07:12:34;96169.41;;;-8.38;76.65
42705;BME280;28342;42.594;23.414;2023-02-10T07:15:01;96168.31;;;-8.35;77.05
42705;BME280;28342;42.594;23.414;2023-02-10T07:17:27;96150.75;;;-8.40;76.28
42705;BME280;28342;42.594;23.414;2023-02-10T07:19:54;96163.31;;;-8.29;76.44
42705;BME280;28342;42.594;23.414;2023-02-10T07:22:20;96157.28;;;-8.20;76.74
42705;BME280;28342;42.594;23.414;2023-02-10T07:24:46;96144.56;;;-7.95;76.11
42705;BME280;28342;42.594;23.414;2023-02-10T07:27:14;96144.81;;;-8.06;76.45
42705;BME280;28342;42.594;23.414;2023-02-10T07:29:40;96162.63;;;-7.61;74.52
42705;BME280;28342;42.594;23.414;2023-02-10T07:32:05;96133.88;;;-7.40;73.99
42705;BME280;28342;42.594;23.414;2023-02-10T07:34:31;96144.94;;;-7.06;72.44
42705;BME280;28342;42.594;23.414;2023-02-10T07:36:59;96148.19;;;-6.96;72.76
42705;BME280;28342;42.594;23.414;2023-02-10T07:39:26;96155.66;;;-6.68;72.89
42705;BME280;28342;42.594;23.414;2023-02-10T07:41:53;96132.22;;;-6.99;72.46
42705;BME280;28342;42.594;23.414;2023-02-10T07:44:19;96122.09;;;-6.60;71.07
42705;BME280;28342;42.594;23.414;2023-02-10T07:46:51;96156.31;;;-6.09;69.81
42705;BME280;28342;42.594;23.414;2023-02-10T07:49:18;96157.25;;;-6.02;69.77
42705;BME280;28342;42.594;23.414;2023-02-10T07:51:43;96140.31;;;-5.96;69.45
42705;BME280;28342;42.594;23.414;2023-02-10T07:54:09;96147.56;;;-5.92;68.48
42705;BME280;28342;42.594;23.414;2023-02-10T07:56:35;96145.94;;;-5.93;69.53
42705;BME280;28342;42.594;23.414;2023-02-10T07:59:00;96143.09;;;-5.67;69.31
42705;BME280;28342;42.594;23.414;2023-02-10T08:01:26;96132.91;;;-5.60;69.20
42705;BME280;28342;42.594;23.414;2023-02-10T08:03:51;96137.22;;;-5.45;69.03
42705;BME280;28342;42.594;23.414;2023-02-10T08:06:21;96145.28;;;-5.00;67.26
42705;BME280;28342;42.594;23.414;2023-02-10T08:08:48;96121.25;;;-4.86;66.39
42705;BME280;28342;42.594;23.414;2023-02-10T08:11:14;96165.28;;;-4.40;66.09
42705;BME280;28342;42.594;23.414;2023-02-10T08:13:39;96155.81;;;-4.33;64.45
42705;BME280;28342;42.594;23.414;2023-02-10T08:16:05;96143.13;;;-4.05;64.95
42705;BME280;28342;42.594;23.414;2023-02-10T08:18:33;96155.25;;;-3.68;62.47
42705;BME280;28342;42.594;23.414;2023-02-10T08:21:00;96141.22;;;-3.59;61.94
42705;BME280;28342;42.594;23.414;2023-02-10T08:23:29;96165.09;;;-3.19;61.10
42705;BME280;28342;42.594;23.414;2023-02-10T08:25:55;96135.41;;;-3.32;61.69
42705;BME280;28342;42.594;23.414;2023-02-10T08:28:22;96157.16;;;-2.82;60.20
42705;BME280;28342;42.594;23.414;2023-02-10T08:30:48;96153.72;;;-2.67;59.73
42705;BME280;28342;42.594;23.414;2023-02-10T08:33:16;96160.84;;;-2.33;59.39
42705;BME280;28342;42.594;23.414;2023-02-10T08:35:41;96169.88;;;-2.08;59.35
42705;BME280;28342;42.594;23.414;2023-02-10T08:38:07;96131.88;;;-2.09;57.08
42705;BME280;28342;42.594;23.414;2023-02-10T08:40:36;96143.34;;;-1.69;56.15
42705;BME280;28342;42.594;23.414;2023-02-10T08:43:01;96151.19;;;-1.34;56.14
42705;BME280;28342;42.594;23.414;2023-02-10T08:45:27;96162.03;;;-1.24;55.35
42705;BME280;28342;42.594;23.414;2023-02-10T08:47:53;96155.91;;;-1.10;55.60
42705;BME280;28342;42.594;23.414;2023-02-10T08:50:18;96145.53;;;-0.97;53.79
42705;BME280;28342;42.594;23.414;2023-02-10T08:52:44;96166.28;;;-0.69;51.10
42705;BME280;28342;42.594;23.414;2023-02-10T08:55:10;96168.34;;;-0.51;50.45
42705;BME280;28342;42.594;23.414;2023-02-10T08:57:37;96148.72;;;-0.34;50.39
42705;BME280;28342;42.594;23.414;2023-02-10T09:00:04;96149.78;;;-0.08;50.27
42705;BME280;28342;42.594;23.414;2023-02-10T09:02:30;96158.00;;;0.15;48.95
42705;BME280;28342;42.594;23.414;2023-02-10T09:04:55;96157.59;;;0.38;46.67
42705;BME280;28342;42.594;23.414;2023-02-10T09:07:21;96149.94;;;0.63;46.94
42705;BME280;28342;42.594;23.414;2023-02-10T09:09:46;96144.09;;;0.68;46.29
42705;BME280;28342;42.594;23.414;2023-02-10T09:12:12;96134.16;;;0.89;47.48
42705;BME280;28342;42.594;23.414;2023-02-10T09:14:39;96147.22;;;0.89;45.44
42705;BME280;28342;42.594;23.414;2023-02-10T09:17:05;96149.00;;;1.09;46.20
42705;BME280;28342;42.594;23.414;2023-02-10T09:19:36;96136.09;;;1.14;46.82
42705;BME280;28342;42.594;23.414;2023-02-10T09:22:05;96130.31;;;1.43;45.77
42705;BME280;28342;42.594;23.414;2023-02-10T09:24:32;96142.25;;;1.71;46.04
42705;BME280;28342;42.594;23.414;2023-02-10T09:26:58;96125.63;;;1.84;45.35
42705;BME280;28342;42.594;23.414;2023-02-10T09:29:23;96144.94;;;2.14;44.98
42705;BME280;28342;42.594;23.414;2023-02-10T09:31:49;96139.78;;;2.32;44.72
42705;BME280;28342;42.594;23.414;2023-02-10T09:34:15;96137.41;;;2.49;44.44
42705;BME280;28342;42.594;23.414;2023-02-10T09:36:40;96119.09;;;2.43;44.42
42705;BME280;28342;42.594;23.414;2023-02-10T09:39:06;96111.63;;;2.46;44.25
42705;BME280;28342;42.594;23.414;2023-02-10T09:44:16;96137.84;;;2.64;44.97
42705;BME280;28342;42.594;23.414;2023-02-10T09:54:32;96104.63;;;2.40;43.63
42705;BME280;28342;42.594;23.414;2023-02-10T09:57:04;96114.72;;;2.61;43.71
42705;BME280;28342;42.594;23.414;2023-02-10T09:59:32;96115.28;;;2.63;43.79
42705;BME280;28342;42.594;23.414;2023-02-10T10:02:01;96093.44;;;2.33;43.81
42705;BME280;28342;42.594;23.414;2023-02-10T10:04:35;96105.63;;;2.64;44.71
42705;BME280;28342;42.594;23.414;2023-02-10T10:09:44;96098.13;;;2.67;43.61
42705;BME280;28342;42.594;23.414;2023-02-10T10:12:18;96086.03;;;2.48;44.04
42705;BME280;28342;42.594;23.414;2023-02-10T10:14:44;96085.91;;;2.61;44.66
42705;BME280;28342;42.594;23.414;2023-02-10T10:17:39;96087.53;;;2.56;44.60
42705;BME280;28342;42.594;23.414;2023-02-10T10:31:29;96065.78;;;1.94;46.44
42705;BME280;28342;42.594;23.414;2023-02-10T10:36:39;96068.47;;;1.87;46.92
42705;BME280;28342;42.594;23.414;2023-02-10T10:39:32;96062.56;;;1.67;45.77
42705;BME280;28342;42.594;23.414;2023-02-10T10:42:26;96052.28;;;1.72;46.96
42705;BME280;28342;42.594;23.414;2023-02-10T10:45:05;96047.41;;;1.50;46.60
42705;BME280;28342;42.594;23.414;2023-02-10T10:47:36;96068.22;;;1.64;46.22
42705;BME280;28342;42.594;23.414;2023-02-10T10:50:24;96062.16;;;1.70;46.78
42705;BME280;28342;42.594;23.414;2023-02-10T10:52:52;96053.53;;;1.63;46.45
42705;BME280;28342;42.594;23.414;2023-02-10T10:55:40;96054.09;;;1.71;46.78
42705;BME280;28342;42.594;23.414;2023-02-10T10:58:57;96041.25;;;1.70;47.54
42705;BME280;28342;42.594;23.414;2023-02-10T11:00:59;96040.75;;;1.55;46.66
42705;BME280;28342;42.594;23.414;2023-02-10T11:03:26;96033.91;;;1.54;47.69
42705;BME280;28342;42.594;23.414;2023-02-10T11:06:09;96019.06;;;1.47;47.82
42705;BME280;28342;42.594;23.414;2023-02-10T11:08:40;96043.75;;;1.52;48.67
42705;BME280;28342;42.594;23.414;2023-02-10T11:11:13;96021.53;;;1.42;46.71
42705;BME280;28342;42.594;23.414;2023-02-10T11:13:47;96020.22;;;1.52;48.89
42705;BME280;28342;42.594;23.414;2023-02-10T11:16:14;96024.03;;;1.56;47.31
42705;BME280;28342;42.594;23.414;2023-02-10T11:18:55;96026.16;;;1.65;47.95
42705;BME280;28342;42.594;23.414;2023-02-10T11:21:38;96015.53;;;1.60;47.32
42705;BME280;28342;42.594;23.414;2023-02-10T11:24:21;96019.53;;;1.63;47.04
42705;BME280;28342;42.594;23.414;2023-02-10T11:29:28;96018.63;;;1.50;47.67
42705;BME280;28342;42.594;23.414;2023-02-10T11:31:54;95991.47;;;1.52;48.42
42705;BME280;28342;42.594;23.414;2023-02-10T11:34:30;95977.38;;;1.53;47.91
42705;BME280;28342;42.594;23.414;2023-02-10T11:36:59;95993.03;;;1.59;48.01
42705;BME280;28342;42.594;23.414;2023-02-10T11:39:38;96003.84;;;1.63;46.98
42705;BME280;28342;42.594;23.414;2023-02-10T11:42:19;96007.03;;;1.65;47.03
42705;BME280;28342;42.594;23.414;2023-02-10T11:47:19;96007.41;;;1.68;47.74
42705;BME280;28342;42.594;23.414;2023-02-10T11:49:49;95994.50;;;1.73;47.39
42705;BME280;28342;42.594;23.414;2023-02-10T11:52:19;95994.50;;;1.73;47.04
42705;BME280;28342;42.594;23.414;2023-02-10T11:54:47;95991.22;;;1.60;46.27
42705;BME280;28342;42.594;23.414;2023-02-10T12:00:40;95981.00;;;1.52;46.40
42705;BME280;28342;42.594;23.414;2023-02-10T12:05:58;95978.13;;;1.60;46.87
42705;BME280;28342;42.594;23.414;2023-02-10T12:11:12;95975.06;;;1.63;47.40
42705;BME280;28342;42.594;23.414;2023-02-10T12:19:39;95964.47;;;2.01;49.34
42705;BME280;28342;42.594;23.414;2023-02-10T12:22:42;95969.31;;;1.97;46.95
42705;BME280;28342;42.594;23.414;2023-02-10T12:25:23;95957.19;;;2.03;47.75
42705;BME280;28342;42.594;23.414;2023-02-10T12:30:57;95969.25;;;2.22;47.96
42705;BME280;28342;42.594;23.414;2023-02-10T12:33:38;95958.41;;;2.37;48.49
42705;BME280;28342;42.594;23.414;2023-02-10T12:39:05;95948.34;;;2.52;45.69
42705;BME280;28342;42.594;23.414;2023-02-10T12:41:44;95953.47;;;2.47;46.60
42705;BME280;28342;42.594;23.414;2023-02-10T12:47:23;95940.66;;;2.39;45.22
42705;BME280;28342;42.594;23.414;2023-02-10T12:55:53;95948.81;;;2.13;46.28
42705;BME280;28342;42.594;23.414;2023-02-10T12:58:50;95953.34;;;2.24;45.08
42705;BME280;28342;42.594;23.414;2023-02-10T13:01:28;95932.97;;;2.26;46.49
42705;BME280;28342;42.594;23.414;2023-02-10T13:04:07;95928.84;;;2.18;46.33
42705;BME280;28342;42.594;23.414;2023-02-10T13:07:08;95943.00;;;2.47;45.98
42705;BME280;28342;42.594;23.414;2023-02-10T13:09:56;95945.91;;;2.39;45.29
42705;BME280;28342;42.594;23.414;2023-02-10T13:12:31;95957.13;;;2.46;44.84
42705;BME280;28342;42.594;23.414;2023-02-10T13:15:24;95957.81;;;2.53;44.93
42705;BME280;28342;42.594;23.414;2023-02-10T13:17:50;95936.28;;;2.51;45.70
42705;BME280;28342;42.594;23.414;2023-02-10T13:23:16;95944.56;;;2.66;44.98
42705;BME280;28342;42.594;23.414;2023-02-10T13:28:36;95939.88;;;2.68;46.30
42705;BME280;28342;42.594;23.414;2023-02-10T13:31:42;95926.78;;;2.68;45.33
42705;BME280;28342;42.594;23.414;2023-02-10T13:34:22;95940.59;;;2.76;44.16
42705;BME280;28342;42.594;23.414;2023-02-10T13:36:57;95930.56;;;2.73;44.40
42705;BME280;28342;42.594;23.414;2023-02-10T13:39:26;95917.56;;;2.66;46.19
42705;BME280;28342;42.594;23.414;2023-02-10T13:42:29;95945.75;;;2.82;44.57
42705;BME280;28342;42.594;23.414;2023-02-10T13:45:02;95913.41;;;2.58;44.95
42705;BME280;28342;42.594;23.414;2023-02-10T13:47:46;95938.34;;;2.79;45.01
42705;BME280;28342;42.594;23.414;2023-02-10T13:53:01;95921.25;;;2.77;45.68
42705;BME280;28342;42.594;23.414;2023-02-10T14:00:44;95933.31;;;2.78;44.61
42705;BME280;28342;42.594;23.414;2023-02-10T14:08:36;95922.88;;;2.59;45.77
42705;BME280;28342;42.594;23.414;2023-02-10T14:14:01;95947.63;;;2.63;44.46
42705;BME280;28342;42.594;23.414;2023-02-10T14:16:30;95946.03;;;2.62;42.76
42705;BME280;28342;42.594;23.414;2023-02-10T14:19:02;95945.69;;;2.70;43.58
42705;BME280;28342;42.594;23.414;2023-02-10T14:21:38;95921.88;;;2.60;42.92
42705;BME280;28342;42.594;23.414;2023-02-10T14:24:09;95907.38;;;2.58;43.98
42705;BME280;28342;42.594;23.414;2023-02-10T14:26:42;95927.28;;;2.77;43.99
42705;BME280;28342;42.594;23.414;2023-02-10T14:29:16;95912.22;;;2.73;44.01
42705;BME280;28342;42.594;23.414;2023-02-10T14:31:42;95935.78;;;2.73;43.95
42705;BME280;28342;42.594;23.414;2023-02-10T14:39:20;95928.97;;;2.72;43.71
42705;BME280;28342;42.594;23.414;2023-02-10T14:41:46;95927.00;;;2.67;43.36
42705;BME280;28342;42.594;23.414;2023-02-10T14:44:23;95925.06;;;2.62;44.85
42705;BME280;28342;42.594;23.414;2023-02-10T14:46:49;95927.53;;;2.57;45.68
42705;BME280;28342;42.594;23.414;2023-02-10T14:49:19;95927.53;;;2.57;46.48
42705;BME280;28342;42.594;23.414;2023-02-10T14:51:46;95919.56;;;2.52;47.68
42705;BME280;28342;42.594;23.414;2023-02-10T14:54:21;95923.19;;;2.51;48.26
42705;BME280;28342;42.594;23.414;2023-02-10T14:56:51;95923.63;;;2.48;48.92
42705;BME280;28342;42.594;23.414;2023-02-10T14:59:25;95919.72;;;2.39;49.22
42705;BME280;28342;42.594;23.414;2023-02-10T15:01:53;95896.06;;;2.16;49.39